• Join FlightAware (Why Join?)
  • Login
  • US Flag 
12:09AM EDT


 

Airport Tracker/Info


-or-


 

Live Flight TrackerFlight Track Log ✈ UAL4401 ✈ 21-Jul-2013 ✈ KRAP - KORD

Flight Track Log - Related Links

Times and Time Zones

All times are in EDT time to prevent confusion due to time zone crossing. See the UAL4401 flight status page for this flight to view local times or setup timezone preferences in your user account.

Time Position Orientation Groundspeed Altitude Reporting Facility
EDT Latitude Longitude Course Direction KTS MPH feet Rate Location/Type
03:44PM 43.9789 -102.8367 110° East 278 320 35,000  Level Denver Center
03:45PM 43.9516 -102.6689 97° East  Level FlightAware Approximate
03:46PM 43.9501 -102.5231 90° East  Level FlightAware Approximate
03:46PM 43.9700 -102.7161 96° East 280 322 9,300  Level Denver Center
03:47PM 43.9500 -102.3772 90° East  Level FlightAware Approximate
03:47PM 43.9647 -102.6150 94° East 291 335 10,600  Level Denver Center
03:48PM 43.9463 -102.2184 96° East  Level FlightAware Approximate
03:48PM 43.9603 -102.4594 92° East 326 375 11,600  Level Denver Center
03:49PM 43.9341 -102.0602 96° East  Level FlightAware Approximate
03:49PM 43.9547 -102.3167 93° East 356 410 12,800  Level Denver Center
03:50PM 43.9483 -102.1706 93° East 372 428 13,800 780 Climbing Denver Center
03:51PM 43.9436 -102.0217 92° East 382 440 14,500 720 Climbing Denver Center
03:52PM 43.9356 -101.8600 94° East 404 465 15,400 960 Climbing Denver Center
03:53PM 43.9294 -101.6683 92° East 413 475 16,600 1,080 Climbing Denver Center
03:54PM 43.9239 -101.5089 93° East 416 479 17,700 1,020 Climbing Denver Center
03:55PM 43.9192 -101.3517 92° East 412 474 18,800 1,080 Climbing Denver Center
03:56PM 43.9117 -101.1625 93° East 414 476 20,100 1,020 Climbing Minneapolis Center
03:57PM 43.9058 -101.0017 93° East 415 478 21,100 960 Climbing Minneapolis Center
03:58PM 43.8989 -100.8406 93° East 417 480 22,200 1,020 Climbing Minneapolis Center
03:59PM 43.8919 -100.6781 93° East 420 483 23,300 1,200 Climbing Minneapolis Center
04:00PM 43.8847 -100.5178 94° East 420 483 24,800 1,440 Climbing Minneapolis Center
04:01PM 43.8772 -100.3692 94° East 404 465 26,300 1,380 Climbing Minneapolis Center
04:02PM 43.8703 -100.2164 94° East 400 460 27,700 1,320 Climbing Minneapolis Center
04:03PM 43.8625 -100.0367 93° East 396 456 29,100 1,200 Climbing Minneapolis Center
04:04PM 43.8547 -99.8864 94° East 394 453 30,300 1,080 Climbing Minneapolis Center
04:05PM 43.8461 -99.7333 94° East 397 457 31,400 960 Climbing Minneapolis Center
04:06PM 43.8383 -99.5783 94° East 403 464 32,400 1,080 Climbing Minneapolis Center
04:07PM 43.8275 -99.3892 94° East 410 472 33,700 1,020 Climbing Minneapolis Center
04:08PM 43.8186 -99.2303 94° East 414 476 34,600 600 Climbing Minneapolis Center
04:09PM 43.8069 -99.0694 96° East 419 482 35,000 180 Climbing Minneapolis Center
04:10PM 43.7700 -98.9053 107° East 446 513 35,000  Level Minneapolis Center
04:11PM 43.7317 -98.7353 107° East 460 529 35,000  Level Minneapolis Center
04:13PM 43.6861 -98.5369 108° East 464 534 35,000  Level Minneapolis Center
04:14PM 43.6467 -98.3681 108° East 463 533 35,000  Level Minneapolis Center
04:15PM 43.6072 -98.1994 108° East 464 534 35,000  Level Minneapolis Center
04:16PM 43.5683 -98.0297 107° East 466 536 35,000  Level Minneapolis Center
04:17PM 43.5272 -97.8600 108° East 468 539 35,000  Level Minneapolis Center
04:18PM 43.4856 -97.6869 108° East 476 548 35,000  Level Minneapolis Center
04:19PM 43.4272 -97.4419 108° East 482 555 35,000  Level Minneapolis Center
04:20PM 43.3847 -97.2700 109° East 480 552 35,000  Level Minneapolis Center
04:21PM 43.3433 -97.0972 108° East 479 551 35,000  Level Minneapolis Center
04:22PM 43.2925 -96.8947 109° East 473 544 35,000  Level Minneapolis Center
04:23PM 43.2503 -96.7247 109° East 474 545 35,000  Level Minneapolis Center
04:24PM 43.1994 -96.5200 109° East 475 547 35,000  Level Minneapolis Center
04:25PM 43.1561 -96.3506 109° East 474 545 35,000  Level Minneapolis Center
04:26PM 43.1131 -96.1828 109° East 472 543 35,000  Level Minneapolis Center
04:27PM 43.0783 -96.0481 109° East 472 543 35,000  Level Minneapolis Center
04:28PM 43.0250 -95.8400 109° East 482 555 35,000  Level Minneapolis Center
04:29PM 42.9725 -95.6350 109° East 483 556 35,000  Level Minneapolis Center
04:31PM 42.9300 -95.4758 110° East 464 534 35,000  Level Minneapolis Center
04:32PM 42.8858 -95.3108 110° East 462 532 35,000  Level Minneapolis Center
04:33PM 42.8419 -95.1458 110° East 466 536 35,000  Level Minneapolis Center
04:34PM 42.7981 -94.9808 110° East 466 536 35,000  Level Minneapolis Center
04:35PM 42.7625 -94.8486 110° East 466 536 35,000  Level Minneapolis Center
04:36PM 42.7064 -94.6439 110° East 463 533 35,000  Level Minneapolis Center
04:37PM 42.6189 -94.4856 127° Southeast 450 518 35,000  Level Minneapolis Center
04:38PM 42.5075 -94.4256 158° South 437 503 35,000  Level Minneapolis Center
04:39PM 42.3872 -94.3619 159° South 446 513 35,000  Level Minneapolis Center
04:40PM 42.3244 -94.2589 129° Southeast 454 522 35,000  Level Minneapolis Center
04:41PM 42.3244 -94.0328 90° East 462 532 35,000  Level Minneapolis Center
04:42PM 42.3444 -93.8597 81° East 470 541 35,000  Level Minneapolis Center
04:43PM 42.3625 -93.6839 82° East 475 547 35,000  Level Minneapolis Center
04:44PM 42.3808 -93.5119 82° East 470 541 35,000  Level Minneapolis Center
04:45PM 42.3989 -93.3397 82° East 468 539 35,000  Level Minneapolis Center
04:46PM 42.4203 -93.1306 82° East 473 544 35,000  Level Minneapolis Center
04:47PM 42.4314 -93.0239 82° East 474 545 35,000  Level Chicago Center
04:48PM 42.4475 -92.8517 83° East 468 539 35,000  Level Chicago Center
04:49PM 42.4650 -92.6750 82° East 475 547 35,000  Level Chicago Center
04:50PM 42.4864 -92.4581 82° East 486 559 35,000  Level Chicago Center
04:51PM 42.5028 -92.2822 83° East 480 552 35,000 -420 Level Chicago Center
04:52PM 42.5189 -92.1058 83° East 478 550 34,200 -840 Descending Chicago Center
04:53PM 42.5244 -91.9253 88° East 487 560 33,300 -1,080 Descending Chicago Center
04:54PM 42.5256 -91.7397 89° East 501 577 32,000 -1,500 Descending Chicago Center
04:55PM 42.5264 -91.5233 90° East 494 568 30,300 -1,260 Descending Chicago Center
04:56PM 42.5272 -91.3439 90° East 490 564 29,400 -660 Descending Chicago Center
04:57PM 42.5264 -91.1694 90° East 475 547 29,000 -240 Descending Chicago Center
04:58PM 42.5261 -90.9506 90° East 489 563 29,000  Level Chicago Center
04:59PM 42.5247 -90.7669 91° East 493 567 29,000  Level Chicago Center
05:00PM 42.5244 -90.5833 90° East 493 567 29,000 -600 Level Chicago Center
05:01PM 42.5231 -90.4000 91° East 493 567 27,800 -1,260 Descending Chicago Center
05:02PM 42.5103 -90.2219 96° East 482 555 26,400 -1,800 Descending Chicago Center
05:03PM 42.5158 -90.0039 88° East 492 566 24,100 -2,340 Descending Chicago Center
05:04PM 42.5286 -89.8225 84° East 466 536 21,600 -2,340 Descending Chicago Center
05:05PM 42.5208 -89.6497 93° East 462 532 19,300 -2,280 Descending Chicago Center
05:06PM 42.5000 -89.4817 99° East 453 521 16,900 -1,860 Descending Chicago Center
05:07PM 42.4806 -89.3258 100° East 426 490 15,500 -960 Descending Chicago Center
05:08PM 42.4583 -89.1472 100° East 416 479 15,000 -1,080 Descending Chicago Center
05:09PM 42.4397 -89.0014 100° East 398 458 13,300 -1,560 Descending Chicago Center
05:11PM 42.4217 -88.8611 100° East 382 440 11,800 -1,260 Descending Chicago Center
05:12PM 42.4058 -88.7392 100° East 337 388 10,700 -1,260 Descending Chicago Center
05:13PM 42.3911 -88.6300 100° East 302 348 9,300 -840 Descending Chicago Center
05:14PM 42.3744 -88.5025 100° East 294 338 9,000 -660 Descending Chicago Center
05:15PM 42.3333 -88.4153 123° Southeast 283 326 8,000 -960 Descending Chicago Center
05:16PM 42.2947 -88.3419 125° Southeast 267 307 7,000 -840 Descending Chicago Center
05:17PM 42.2497 -88.2606 127° Southeast 231 266 6,300 -960 Descending Chicago Center
05:18PM 42.2111 -88.1956 129° Southeast 224 258 5,100 -600 Descending Chicago Center
05:19PM 42.1708 -88.1344 132° Southeast 222 255 5,100 -540 Level Chicago Center
05:20PM 42.1261 -88.0894 143° Southeast 206 237 4,000 -1,200 Descending Chicago Center
05:21PM 42.0833 -88.0500 146° Southeast 184 212 3,000 -1,320 Descending Chicago TRACON